createdAt,value
2023-05-21T00:00:22.276Z,3.63
2023-05-21T00:02:49.296Z,3.72
2023-05-21T00:05:18.268Z,3.40
2023-05-21T00:07:45.942Z,3.42
2023-05-21T00:10:13.060Z,3.58
2023-05-21T00:12:40.283Z,4.30
2023-05-21T00:15:08.165Z,4.22
2023-05-21T00:17:36.905Z,4.05
2023-05-21T00:20:07.305Z,4.43
2023-05-21T00:22:33.844Z,3.78
2023-05-21T00:25:00.563Z,4.60
2023-05-21T00:27:27.161Z,5.03
2023-05-21T00:29:53.764Z,4.43
2023-05-21T00:32:20.393Z,4.25
2023-05-21T00:34:47.352Z,4.45
2023-05-21T00:37:15.249Z,4.57
2023-05-21T00:39:42.158Z,4.43
2023-05-21T00:42:08.759Z,4.95
2023-05-21T00:44:35.463Z,4.78
2023-05-21T00:47:02.426Z,5.05
2023-05-21T00:49:29.107Z,5.25
2023-05-21T00:51:55.714Z,4.43
2023-05-21T00:54:22.735Z,4.35
2023-05-21T00:56:49.407Z,5.07
2023-05-21T00:59:16.844Z,4.20
2023-05-21T01:01:45.498Z,4.40
2023-05-21T01:04:13.195Z,4.93
2023-05-21T01:06:39.764Z,4.50
2023-05-21T01:09:07.355Z,4.72
2023-05-21T01:11:39.589Z,4.30
2023-05-21T01:14:09.433Z,5.03
2023-05-21T01:16:41.039Z,5.03
2023-05-21T01:19:10.854Z,4.63
2023-05-21T01:21:41.882Z,4.22
2023-05-21T01:24:08.457Z,4.30
2023-05-21T01:26:38.715Z,4.85
2023-05-21T01:29:06.626Z,4.72
2023-05-21T01:32:15.199Z,4.32
2023-05-21T01:34:56.426Z,4.57
2023-05-21T01:40:25.521Z,5.28
2023-05-21T01:42:52.358Z,4.75
2023-05-21T01:45:20.133Z,4.70
2023-05-21T01:47:48.326Z,5.00
2023-05-21T01:50:16.147Z,4.72
2023-05-21T01:52:53.062Z,4.90
2023-05-21T01:55:24.813Z,4.88
2023-05-21T01:57:55.857Z,4.82
2023-05-21T02:00:24.165Z,5.18
2023-05-21T02:02:51.687Z,5.18
2023-05-21T02:05:18.431Z,4.95
2023-05-21T02:07:46.069Z,4.93
2023-05-21T02:10:12.922Z,5.28
2023-05-21T02:12:39.579Z,4.70
2023-05-21T02:15:06.727Z,5.07
2023-05-21T02:17:34.256Z,5.18
2023-05-21T02:20:11.120Z,4.47
2023-05-21T02:22:39.452Z,4.97
2023-05-21T02:25:10.156Z,4.78
2023-05-21T02:27:37.798Z,5.07
2023-05-21T02:30:09.871Z,4.55
2023-05-21T02:32:36.656Z,4.60
2023-05-21T02:35:04.621Z,5.03
2023-05-21T02:37:34.712Z,4.57
2023-05-21T02:40:04.247Z,4.53
2023-05-21T02:42:30.902Z,4.63
2023-05-21T02:44:57.492Z,4.70
2023-05-21T02:47:24.207Z,4.60
2023-05-21T02:49:51.724Z,5.32
2023-05-21T02:52:19.837Z,5.15
2023-05-21T02:57:13.423Z,5.50
2023-05-21T02:59:40.128Z,4.80
2023-05-21T03:02:06.981Z,5.03
2023-05-21T03:04:39.197Z,5.13
2023-05-21T03:07:06.292Z,4.88
2023-05-21T03:09:32.879Z,4.90
2023-05-21T03:11:59.422Z,5.40
2023-05-21T03:14:26.021Z,4.93
2023-05-21T03:16:52.944Z,5.13
2023-05-21T03:19:20.870Z,4.63
2023-05-21T03:21:49.067Z,4.53
2023-05-21T03:24:15.733Z,4.82
2023-05-21T03:26:42.269Z,4.45
2023-05-21T03:29:08.817Z,4.82
2023-05-21T03:31:35.434Z,5.65
2023-05-21T03:34:01.961Z,4.60
2023-05-21T03:36:28.594Z,5.20
2023-05-21T03:38:55.146Z,4.65
2023-05-21T03:41:22.068Z,5.20
2023-05-21T03:43:48.616Z,4.88
2023-05-21T03:46:15.303Z,5.53
2023-05-21T03:48:41.911Z,5.22
2023-05-21T03:51:09.554Z,5.15
2023-05-21T03:53:36.857Z,5.63
2023-05-21T03:56:03.509Z,5.15
2023-05-21T03:58:30.958Z,5.07
2023-05-21T04:00:57.648Z,4.88
2023-05-21T04:03:24.340Z,5.65
2023-05-21T04:05:51.054Z,5.13
2023-05-21T04:08:17.652Z,5.40
2023-05-21T04:10:44.452Z,5.55
2023-05-21T04:13:11.074Z,5.63
2023-05-21T04:15:38.904Z,5.55
2023-05-21T04:18:07.271Z,5.47
2023-05-21T04:20:34.049Z,5.45
2023-05-21T04:23:01.196Z,5.47
2023-05-21T04:25:27.776Z,5.60
2023-05-21T04:27:54.736Z,5.13
2023-05-21T04:30:22.033Z,4.75
2023-05-21T04:32:48.813Z,5.32
2023-05-21T04:35:15.662Z,5.63
2023-05-21T04:37:42.179Z,5.55
2023-05-21T04:40:09.811Z,5.90
2023-05-21T04:42:36.545Z,5.38
2023-05-21T04:45:03.411Z,5.15
2023-05-21T04:47:30.474Z,5.57
2023-05-21T04:49:57.183Z,5.05
2023-05-21T04:52:25.072Z,5.03
2023-05-21T04:54:51.853Z,5.30
2023-05-21T04:57:18.456Z,5.10
2023-05-21T04:59:45.031Z,5.50
2023-05-21T05:02:11.722Z,5.05
2023-05-21T05:04:38.295Z,5.15
2023-05-21T05:07:05.039Z,5.28
2023-05-21T05:09:31.755Z,5.03
2023-05-21T05:11:58.339Z,4.63
2023-05-21T05:14:25.142Z,4.80
2023-05-21T05:16:51.775Z,5.57
2023-05-21T05:19:18.460Z,5.40
2023-05-21T05:21:45.017Z,5.45
2023-05-21T05:24:11.550Z,5.80
2023-05-21T05:26:38.282Z,5.55
2023-05-21T05:29:04.852Z,5.28
2023-05-21T05:31:31.517Z,5.30
2023-05-21T05:33:58.468Z,5.15
2023-05-21T05:36:25.165Z,5.03
2023-05-21T05:38:52.018Z,4.93
2023-05-21T05:41:18.566Z,5.00
2023-05-21T05:43:45.108Z,4.65
2023-05-21T05:46:11.685Z,4.97
2023-05-21T05:48:38.293Z,5.25
2023-05-21T05:51:05.279Z,4.40
2023-05-21T05:53:32.519Z,4.43
2023-05-21T05:55:59.867Z,5.82
2023-05-21T05:58:26.420Z,4.95
2023-05-21T06:00:53.014Z,5.32
2023-05-21T06:03:20.014Z,5.25
2023-05-21T06:05:46.806Z,5.57
2023-05-21T06:08:13.384Z,5.13
2023-05-21T06:10:39.966Z,5.38
2023-05-21T06:13:06.535Z,5.50
2023-05-21T06:15:33.734Z,5.22
2023-05-21T06:18:00.493Z,5.03
2023-05-21T06:20:27.691Z,4.93
2023-05-21T06:22:54.459Z,4.90
2023-05-21T06:25:21.025Z,4.82
2023-05-21T06:27:47.588Z,4.85
2023-05-21T06:30:14.177Z,4.82
2023-05-21T06:32:40.974Z,5.05
2023-05-21T06:35:08.060Z,4.20
2023-05-21T06:37:34.610Z,4.80
2023-05-21T06:40:01.533Z,4.70
2023-05-21T06:42:28.110Z,4.72
2023-05-21T06:44:54.952Z,5.15
2023-05-21T06:47:21.625Z,4.60
2023-05-21T06:49:48.226Z,5.07
2023-05-21T06:52:14.877Z,5.13
2023-05-21T06:54:42.427Z,5.03
2023-05-21T06:57:09.040Z,5.05
2023-05-21T06:59:35.668Z,5.28
2023-05-21T07:02:04.450Z,5.05
2023-05-21T07:04:31.608Z,5.85
2023-05-21T07:06:58.255Z,5.10
2023-05-21T07:09:24.827Z,5.05
2023-05-21T07:11:53.026Z,4.97
2023-05-21T07:14:19.617Z,4.85
2023-05-21T07:16:46.247Z,4.82
2023-05-21T07:19:12.917Z,6.20
2023-05-21T07:21:39.527Z,5.55
2023-05-21T07:24:06.339Z,5.50
2023-05-21T07:26:32.955Z,5.43
2023-05-21T07:28:59.564Z,5.30
2023-05-21T07:31:26.817Z,5.40
2023-05-21T07:33:53.460Z,5.63
2023-05-21T07:36:20.184Z,5.38
2023-05-21T07:38:46.899Z,5.70
2023-05-21T07:41:13.450Z,5.93
2023-05-21T07:43:40.009Z,6.13
2023-05-21T07:46:06.666Z,6.13
2023-05-21T07:48:35.452Z,6.15
2023-05-21T07:51:02.673Z,5.28
2023-05-21T07:53:32.269Z,6.30
2023-05-21T07:56:00.168Z,6.00
2023-05-21T07:58:26.716Z,5.00
2023-05-21T08:00:53.988Z,5.25
2023-05-21T08:03:20.736Z,5.38
2023-05-21T08:05:50.992Z,5.10
2023-05-21T08:08:20.166Z,5.15
2023-05-21T08:10:47.825Z,5.43
2023-05-21T08:13:16.669Z,4.88
2023-05-21T08:15:43.258Z,4.53
2023-05-21T08:18:10.155Z,5.10
2023-05-21T08:20:36.994Z,5.15
2023-05-21T08:23:04.252Z,5.10
2023-05-21T08:25:31.040Z,5.03
2023-05-21T08:27:57.662Z,5.00
2023-05-21T08:30:24.239Z,5.65
2023-05-21T08:32:50.826Z,4.78
2023-05-21T08:35:17.447Z,5.00
2023-05-21T08:37:44.068Z,5.93
2023-05-21T08:40:12.593Z,5.40
2023-05-21T08:42:49.221Z,5.95
2023-05-21T08:45:20.862Z,5.60
2023-05-21T08:47:48.184Z,5.55
2023-05-21T08:50:16.771Z,5.22
2023-05-21T08:52:44.455Z,5.40
2023-05-21T08:55:11.083Z,5.63
2023-05-21T08:57:43.521Z,5.93
2023-05-21T09:00:11.877Z,5.60
2023-05-21T09:02:41.078Z,6.13
2023-05-21T09:05:09.231Z,5.43
2023-05-21T09:08:05.437Z,5.88
2023-05-21T09:10:53.330Z,5.63
2023-05-21T09:13:20.837Z,5.05
2023-05-21T09:15:48.092Z,4.72
2023-05-21T09:18:15.067Z,5.53
2023-05-21T09:20:41.903Z,5.22
2023-05-21T09:23:16.956Z,5.35
2023-05-21T09:25:48.495Z,5.30
2023-05-21T09:28:16.212Z,5.75
2023-05-21T09:30:46.972Z,5.50
2023-05-21T09:33:30.122Z,4.85
2023-05-21T09:35:56.830Z,5.22
2023-05-21T09:38:24.330Z,5.07
2023-05-21T09:40:51.023Z,5.47
2023-05-21T09:43:17.783Z,4.93
2023-05-21T09:45:55.016Z,4.88
2023-05-21T09:48:43.068Z,5.70
2023-05-21T09:51:11.352Z,4.93
2023-05-21T09:53:54.621Z,4.45
2023-05-21T09:56:25.944Z,4.90
2023-05-21T09:58:54.971Z,5.00
2023-05-21T10:01:22.024Z,4.47
2023-05-21T10:03:58.504Z,5.20
2023-05-21T10:06:27.446Z,4.82
2023-05-21T10:08:56.868Z,4.72
2023-05-21T10:11:27.108Z,4.90
2023-05-21T10:14:19.250Z,5.00
2023-05-21T10:16:47.632Z,5.32
2023-05-21T10:19:16.111Z,5.07
2023-05-21T10:21:42.930Z,5.25
2023-05-21T10:24:10.227Z,5.03
2023-05-21T10:26:38.396Z,5.18
2023-05-21T10:29:05.180Z,5.35
2023-05-21T10:31:33.143Z,5.10
2023-05-21T10:34:00.668Z,5.10
2023-05-21T10:36:31.058Z,5.47
2023-05-21T10:38:58.625Z,5.63
2023-05-21T10:41:26.184Z,5.18
2023-05-21T10:44:20.289Z,5.05
2023-05-21T10:47:09.385Z,4.72
2023-05-21T10:50:09.328Z,4.78
2023-05-21T10:52:36.151Z,4.75
2023-05-21T10:55:02.630Z,5.60
2023-05-21T10:57:41.482Z,5.53
2023-05-21T11:00:10.109Z,5.68
2023-05-21T11:02:37.358Z,5.60
2023-05-21T11:05:04.629Z,6.43
2023-05-21T11:08:02.480Z,5.82
2023-05-21T11:10:39.491Z,5.13
2023-05-21T11:13:12.786Z,4.97
2023-05-21T11:15:57.701Z,5.22
2023-05-21T11:18:36.209Z,5.68
2023-05-21T11:21:06.454Z,5.78
2023-05-21T11:23:51.554Z,5.90
2023-05-21T11:26:26.401Z,6.38
2023-05-21T11:29:05.060Z,6.20
2023-05-21T11:31:38.184Z,5.80
2023-05-21T11:34:11.127Z,6.05
2023-05-21T11:36:39.078Z,5.97
2023-05-21T11:39:22.309Z,5.53
2023-05-21T11:42:04.343Z,5.80
2023-05-21T11:44:49.169Z,6.05
2023-05-21T11:47:17.920Z,5.22
2023-05-21T11:49:45.972Z,5.82
2023-05-21T11:52:13.793Z,5.85
2023-05-21T11:54:50.550Z,5.68
2023-05-21T11:57:19.293Z,6.38
2023-05-21T11:59:46.685Z,5.65
2023-05-21T12:02:20.206Z,6.00
2023-05-21T12:04:48.621Z,5.88
2023-05-21T12:07:17.328Z,6.60
2023-05-21T12:09:49.070Z,6.10
2023-05-21T12:12:21.435Z,5.95
2023-05-21T12:14:52.673Z,5.25
2023-05-21T12:17:21.024Z,6.15
2023-05-21T12:19:48.299Z,6.03
2023-05-21T12:22:16.574Z,4.55
2023-05-21T12:24:43.959Z,5.38
2023-05-21T12:27:12.945Z,5.85
2023-05-21T12:29:41.762Z,5.65
2023-05-21T12:32:10.591Z,5.72
2023-05-21T12:34:42.697Z,5.30
2023-05-21T12:37:09.347Z,5.13
2023-05-21T12:39:40.368Z,4.85
2023-05-21T12:42:07.194Z,5.22
2023-05-21T12:44:36.635Z,4.95
2023-05-21T12:47:03.785Z,4.82
2023-05-21T12:49:35.035Z,5.68
2023-05-21T12:52:14.264Z,4.75
2023-05-21T12:54:45.331Z,4.97
2023-05-21T12:57:17.623Z,4.95
2023-05-21T12:59:57.973Z,5.10
2023-05-21T13:04:56.582Z,4.80
2023-05-21T13:07:24.421Z,4.78
2023-05-21T13:09:53.222Z,4.97
2023-05-21T13:12:22.860Z,5.00
2023-05-21T13:14:55.012Z,4.35
2023-05-21T13:17:22.304Z,4.85
2023-05-21T13:20:08.844Z,4.60
2023-05-21T13:22:38.965Z,4.10
2023-05-21T13:25:06.621Z,4.50
2023-05-21T13:29:59.654Z,4.25
2023-05-21T13:32:26.345Z,4.85
2023-05-21T13:34:52.970Z,4.32
2023-05-21T13:37:20.574Z,4.43
2023-05-21T13:42:14.125Z,4.45
2023-05-21T13:44:40.773Z,4.63
2023-05-21T13:47:07.681Z,4.53
2023-05-21T13:49:34.592Z,4.45
2023-05-21T13:52:01.199Z,4.43
2023-05-21T13:54:28.122Z,5.25
2023-05-21T13:56:54.970Z,5.38
2023-05-21T13:59:22.085Z,4.47
2023-05-21T14:01:49.947Z,4.25
2023-05-21T14:04:17.830Z,4.50
2023-05-21T14:06:44.907Z,4.40
2023-05-21T14:09:11.845Z,4.70
2023-05-21T14:11:38.513Z,4.18
2023-05-21T14:14:05.668Z,5.13
2023-05-21T14:16:32.418Z,3.95
2023-05-21T14:18:59.248Z,4.80
2023-05-21T14:21:26.119Z,4.18
2023-05-21T14:23:52.964Z,4.32
2023-05-21T14:26:19.577Z,4.03
2023-05-21T14:28:46.336Z,4.38
2023-05-21T14:31:12.891Z,4.80
2023-05-21T14:33:39.492Z,4.68
2023-05-21T14:36:06.167Z,4.45
2023-05-21T14:38:32.763Z,5.10
2023-05-21T14:40:59.493Z,4.57
2023-05-21T14:43:26.049Z,4.82
2023-05-21T14:45:52.691Z,4.55
2023-05-21T14:48:22.852Z,5.07
2023-05-21T14:50:51.090Z,4.03
2023-05-21T14:53:18.737Z,4.50
2023-05-21T14:55:45.784Z,4.55
2023-05-21T14:58:12.378Z,4.80
2023-05-21T15:00:38.999Z,5.55
2023-05-21T15:03:06.141Z,4.75
2023-05-21T15:05:33.835Z,4.25
2023-05-21T15:10:28.184Z,4.45
2023-05-21T15:15:21.609Z,5.05
2023-05-21T15:17:48.960Z,4.95
2023-05-21T15:20:16.135Z,4.82
2023-05-21T15:22:42.973Z,4.97
2023-05-21T15:25:10.095Z,5.07
2023-05-21T15:27:36.697Z,4.80
2023-05-21T15:30:04.013Z,4.32
2023-05-21T15:32:31.388Z,4.65
2023-05-21T15:34:58.169Z,4.22
2023-05-21T15:37:24.813Z,4.80
2023-05-21T15:39:51.412Z,5.03
2023-05-21T15:42:18.037Z,4.78
2023-05-21T15:44:44.827Z,4.13
2023-05-21T15:47:11.427Z,4.40
2023-05-21T15:49:37.980Z,4.32
2023-05-21T15:52:04.774Z,4.43
2023-05-21T15:54:31.346Z,4.35
2023-05-21T15:56:57.933Z,4.38
2023-05-21T15:59:25.870Z,4.00
2023-05-21T16:01:52.499Z,4.40
2023-05-21T16:04:21.710Z,4.22
2023-05-21T16:06:48.419Z,4.50
2023-05-21T16:09:15.529Z,3.60
2023-05-21T16:11:44.686Z,4.28
2023-05-21T16:14:12.120Z,4.65
2023-05-21T16:16:38.960Z,4.40
2023-05-21T16:19:05.821Z,4.28
2023-05-21T16:21:33.025Z,4.82
2023-05-21T16:24:00.008Z,3.70
2023-05-21T16:26:26.574Z,4.20
2023-05-21T16:28:53.815Z,3.92
2023-05-21T16:31:20.530Z,4.85
2023-05-21T16:33:47.160Z,4.80
2023-05-21T16:36:15.027Z,4.10
2023-05-21T16:38:44.326Z,4.43
2023-05-21T16:41:11.164Z,4.85
2023-05-21T16:43:37.739Z,4.18
2023-05-21T16:46:04.356Z,4.32
2023-05-21T16:48:32.259Z,5.05
2023-05-21T16:50:59.387Z,4.20
2023-05-21T16:53:26.588Z,4.68
2023-05-21T16:55:53.173Z,4.20
2023-05-21T16:58:19.829Z,4.03
2023-05-21T17:00:46.561Z,3.72
2023-05-21T17:03:13.308Z,4.45
2023-05-21T17:05:40.048Z,3.90
2023-05-21T17:08:07.548Z,3.75
2023-05-21T17:10:34.277Z,4.10
2023-05-21T17:13:09.739Z,4.10
2023-05-21T17:15:44.675Z,5.40
2023-05-21T17:18:12.146Z,4.75
2023-05-21T17:20:38.987Z,3.97
2023-05-21T17:23:05.647Z,4.40
2023-05-21T17:25:34.298Z,4.32
2023-05-21T17:28:01.273Z,4.35
2023-05-21T17:30:27.870Z,3.95
2023-05-21T17:32:54.660Z,3.50
2023-05-21T17:35:21.467Z,3.92
2023-05-21T17:37:48.176Z,4.47
2023-05-21T17:40:14.845Z,4.47
2023-05-21T17:42:41.406Z,4.60
2023-05-21T17:45:08.473Z,4.40
2023-05-21T17:47:35.221Z,4.70
2023-05-21T17:50:01.882Z,4.00
2023-05-21T17:52:28.517Z,4.45
2023-05-21T17:54:55.129Z,4.80
2023-05-21T17:57:21.817Z,3.83
2023-05-21T17:59:48.492Z,3.97
2023-05-21T18:02:15.069Z,3.83
2023-05-21T18:04:41.598Z,4.55
2023-05-21T18:07:08.282Z,3.22
2023-05-21T18:09:34.883Z,4.35
2023-05-21T18:12:03.011Z,4.60
2023-05-21T18:14:30.041Z,3.90
2023-05-21T18:16:56.673Z,4.13
2023-05-21T18:19:23.440Z,5.60
2023-05-21T18:21:50.143Z,4.45
2023-05-21T18:24:16.694Z,4.70
2023-05-21T18:26:43.671Z,5.35
2023-05-21T18:29:11.273Z,4.00
2023-05-21T18:31:37.980Z,4.40
2023-05-21T18:34:04.576Z,4.68
2023-05-21T18:36:38.873Z,4.43
2023-05-21T18:39:06.872Z,5.55
2023-05-21T18:41:33.598Z,4.78
2023-05-21T18:44:01.975Z,4.38
2023-05-21T18:46:29.081Z,4.68
2023-05-21T18:48:56.417Z,4.53
2023-05-21T18:51:23.016Z,4.35
2023-05-21T18:53:49.586Z,4.38
2023-05-21T18:56:16.542Z,3.83
2023-05-21T18:58:43.107Z,5.40
2023-05-21T19:01:10.060Z,4.15
2023-05-21T19:03:36.803Z,4.85
2023-05-21T19:06:03.656Z,4.85
2023-05-21T19:08:30.251Z,4.55
2023-05-21T19:10:56.820Z,5.32
2023-05-21T19:13:23.716Z,4.93
2023-05-21T19:15:50.458Z,5.13
2023-05-21T19:18:17.326Z,5.53
2023-05-21T19:20:44.009Z,4.68
2023-05-21T19:23:10.823Z,4.72
2023-05-21T19:25:37.598Z,4.53
2023-05-21T19:28:04.295Z,4.80
2023-05-21T19:30:30.981Z,4.32
2023-05-21T19:32:57.857Z,4.70
2023-05-21T19:35:24.440Z,4.30
2023-05-21T19:37:51.160Z,4.82
2023-05-21T19:40:17.920Z,5.63
2023-05-21T19:42:44.771Z,4.97
2023-05-21T19:45:11.831Z,4.80
2023-05-21T19:47:41.043Z,5.53
2023-05-21T19:50:08.289Z,5.40
2023-05-21T19:52:34.868Z,6.05
2023-05-21T19:55:04.841Z,5.50
2023-05-21T19:57:32.795Z,5.47
2023-05-21T19:59:59.509Z,5.00
2023-05-21T20:02:28.791Z,5.72
2023-05-21T20:04:57.627Z,5.53
2023-05-21T20:07:24.409Z,5.55
2023-05-21T20:09:51.149Z,6.20
2023-05-21T20:12:17.824Z,5.95
2023-05-21T20:14:46.733Z,5.75
2023-05-21T20:17:14.638Z,6.45
2023-05-21T20:19:41.390Z,6.20
2023-05-21T20:22:08.062Z,7.25
2023-05-21T20:24:34.681Z,7.10
2023-05-21T20:27:01.699Z,7.45
2023-05-21T20:29:28.873Z,6.18
2023-05-21T20:31:55.495Z,7.18
2023-05-21T20:34:22.253Z,8.10
2023-05-21T20:36:48.866Z,8.82
2023-05-21T20:39:15.839Z,7.72
2023-05-21T20:41:44.852Z,8.20
2023-05-21T20:44:12.021Z,7.13
2023-05-21T20:46:39.010Z,7.75
2023-05-21T20:49:05.943Z,7.30
2023-05-21T20:51:32.660Z,8.23
2023-05-21T20:53:59.315Z,8.32
2023-05-21T20:56:40.815Z,8.43
2023-05-21T20:59:10.477Z,8.20
2023-05-21T21:01:38.167Z,8.88
2023-05-21T21:04:05.155Z,8.80
2023-05-21T21:06:32.017Z,8.38
2023-05-21T21:08:58.767Z,7.85
2023-05-21T21:11:26.652Z,7.68
2023-05-21T21:13:53.345Z,8.00
2023-05-21T21:16:19.989Z,7.53
2023-05-21T21:18:47.153Z,7.57
2023-05-21T21:21:13.872Z,8.63
2023-05-21T21:23:40.696Z,8.10
2023-05-21T21:26:07.369Z,8.07
2023-05-21T21:28:34.331Z,8.02
2023-05-21T21:31:00.991Z,8.27
2023-05-21T21:33:28.448Z,8.13
2023-05-21T21:35:55.326Z,7.18
2023-05-21T21:38:22.024Z,8.10
2023-05-21T21:40:48.956Z,7.32
2023-05-21T21:43:15.546Z,8.98
2023-05-21T21:45:42.210Z,7.15
2023-05-21T21:48:08.811Z,7.88
2023-05-21T21:50:35.511Z,8.25
2023-05-21T21:53:03.545Z,8.90
2023-05-21T21:55:30.350Z,8.43
2023-05-21T21:57:56.973Z,8.45
2023-05-21T22:00:26.725Z,9.02
2023-05-21T22:02:53.980Z,8.18
2023-05-21T22:05:21.000Z,8.93
2023-05-21T22:07:47.907Z,8.80
2023-05-21T22:10:16.149Z,9.00
2023-05-21T22:12:43.979Z,9.07
2023-05-21T22:15:25.190Z,9.07
2023-05-21T22:20:19.387Z,8.82
2023-05-21T22:22:46.239Z,9.18
2023-05-21T22:25:12.893Z,9.57
2023-05-21T22:27:40.301Z,10.07
2023-05-21T22:30:07.482Z,9.48
2023-05-21T22:32:34.119Z,9.68
2023-05-21T22:35:02.354Z,10.10
2023-05-21T22:37:28.957Z,10.60
2023-05-21T22:39:56.843Z,9.48
2023-05-21T22:42:23.752Z,9.98
2023-05-21T22:44:50.668Z,11.70
2023-05-21T22:47:17.583Z,10.55
2023-05-21T22:49:45.519Z,11.18
2023-05-21T22:52:12.080Z,10.75
2023-05-21T22:54:38.634Z,11.00
2023-05-21T22:57:05.697Z,11.52
2023-05-21T22:59:32.518Z,11.60
2023-05-21T23:01:59.283Z,9.63
2023-05-21T23:04:42.657Z,11.25
2023-05-21T23:07:10.296Z,10.02
2023-05-21T23:09:37.059Z,10.40
2023-05-21T23:12:04.030Z,11.02
2023-05-21T23:14:30.820Z,9.35
2023-05-21T23:17:01.937Z,9.60
2023-05-21T23:19:29.777Z,10.73
2023-05-21T23:21:56.590Z,10.73
2023-05-21T23:28:25.851Z,9.55
2023-05-21T23:30:52.846Z,10.80
2023-05-21T23:33:19.536Z,10.35
2023-05-21T23:35:46.116Z,11.52
2023-05-21T23:38:12.822Z,11.32
2023-05-21T23:40:39.594Z,10.75
2023-05-21T23:43:06.444Z,11.63
2023-05-21T23:45:33.149Z,10.93
2023-05-21T23:47:59.818Z,12.00
2023-05-21T23:50:26.427Z,10.63
2023-05-21T23:52:52.993Z,10.35
2023-05-21T23:55:19.642Z,11.02
2023-05-21T23:57:46.211Z,11.38
